createdAt,value
2017-11-22T00:02:17.818Z,95042.81
2017-11-22T00:04:45.038Z,95048.11
2017-11-22T00:07:12.247Z,95044.90
2017-11-22T00:09:39.550Z,95044.52
2017-11-22T00:12:06.772Z,95048.14
2017-11-22T00:14:33.973Z,95060.59
2017-11-22T00:17:01.203Z,95055.86
2017-11-22T00:19:28.381Z,95056.45
2017-11-22T00:21:55.633Z,95057.95
2017-11-22T00:24:22.964Z,95044.94
2017-11-22T00:26:50.126Z,95053.81
2017-11-22T00:29:17.327Z,95057.98
2017-11-22T00:31:44.558Z,95061.36
2017-11-22T00:34:11.777Z,95054.02
2017-11-22T00:36:38.996Z,95047.02
2017-11-22T00:39:06.177Z,95052.31
2017-11-22T00:41:33.386Z,95061.95
2017-11-22T00:44:00.600Z,95066.09
2017-11-22T00:46:27.781Z,95058.75
2017-11-22T00:48:55.020Z,95061.19
2017-11-22T00:51:22.194Z,95065.75
2017-11-22T00:53:49.399Z,95061.95
2017-11-22T00:56:16.608Z,95067.63
2017-11-22T00:58:43.782Z,95067.83
2017-11-22T01:01:11.040Z,95068.39
2017-11-22T01:03:38.230Z,95072.56
2017-11-22T01:06:05.440Z,95072.73
2017-11-22T01:08:32.692Z,95073.50
2017-11-22T01:10:59.929Z,95066.12
2017-11-22T01:13:27.105Z,95065.95
2017-11-22T01:15:54.305Z,95069.73
2017-11-22T01:18:21.543Z,95074.82
2017-11-22T01:20:48.766Z,95078.61
2017-11-22T01:23:15.963Z,95067.86
2017-11-22T01:25:43.197Z,95060.86
2017-11-22T01:28:10.438Z,95054.25
2017-11-22T01:30:37.604Z,95050.67
2017-11-22T01:33:04.822Z,95044.44
2017-11-22T01:35:32.067Z,95048.41
2017-11-22T01:37:59.280Z,95048.58
2017-11-22T01:40:26.502Z,95038.20
2017-11-22T01:42:53.683Z,95030.83
2017-11-22T01:45:20.892Z,95031.98
2017-11-22T01:47:48.080Z,95027.25
2017-11-22T01:50:15.298Z,95031.77
2017-11-22T01:52:42.528Z,95029.30
2017-11-22T01:55:09.700Z,95023.45
2017-11-22T01:57:36.935Z,95032.16
2017-11-22T02:00:04.133Z,95043.49
2017-11-22T02:02:31.362Z,95046.87
2017-11-22T02:04:58.549Z,95041.41
2017-11-22T02:07:26.070Z,95048.58
2017-11-22T02:09:53.294Z,95042.38
2017-11-22T02:12:20.475Z,95042.37
2017-11-22T02:14:47.777Z,95032.94
2017-11-22T02:17:17.169Z,95037.28
2017-11-22T02:19:44.455Z,95031.44
2017-11-22T02:22:21.166Z,95022.18
2017-11-22T02:24:48.446Z,95028.61
2017-11-22T02:27:28.058Z,95031.64
2017-11-22T02:29:55.349Z,95036.75
2017-11-22T02:32:44.891Z,95029.58
2017-11-22T02:35:12.153Z,95027.11
2017-11-22T02:37:39.378Z,95017.68
2017-11-22T02:40:06.653Z,95028.61
2017-11-22T02:42:33.932Z,95025.23
2017-11-22T02:45:13.832Z,95017.67
2017-11-22T02:47:41.144Z,95012.02
2017-11-22T02:50:08.426Z,95011.84
2017-11-22T02:52:35.691Z,95024.08
2017-11-22T02:55:02.956Z,95026.38
2017-11-22T02:57:30.221Z,95020.33
2017-11-22T02:59:57.548Z,95018.80
2017-11-22T03:02:24.770Z,95014.83
2017-11-22T03:04:52.038Z,95023.34
2017-11-22T03:07:19.222Z,95023.73
2017-11-22T03:09:46.542Z,95015.59
2017-11-22T03:12:13.838Z,95011.63
2017-11-22T03:14:45.547Z,95023.34
2017-11-22T03:17:12.888Z,95029.58
2017-11-22T03:22:37.471Z,95039.00
2017-11-22T03:25:12.493Z,95035.03
2017-11-22T03:27:39.738Z,95032.22
2017-11-22T03:30:07.046Z,95033.16
2017-11-22T03:32:35.233Z,95040.32
2017-11-22T03:35:02.512Z,95035.98
2017-11-22T03:37:51.378Z,95038.47
2017-11-22T03:40:18.682Z,95047.88
2017-11-22T03:42:58.192Z,95054.09
2017-11-22T03:45:25.541Z,95054.86
2017-11-22T03:47:55.141Z,95060.33
2017-11-22T03:50:23.093Z,95059.20
2017-11-22T03:52:50.334Z,95049.20
2017-11-22T03:55:17.689Z,95058.27
2017-11-22T04:00:42.644Z,95060.33
2017-11-22T04:03:10.732Z,95071.28
2017-11-22T04:05:38.049Z,95059.38
2017-11-22T04:08:05.264Z,95063.15
2017-11-22T04:10:32.495Z,95064.86
2017-11-22T04:12:59.751Z,95066.93
2017-11-22T04:15:26.996Z,95067.47
2017-11-22T04:17:54.270Z,95074.67
2017-11-22T04:20:21.476Z,95072.94
2017-11-22T04:22:48.724Z,95072.56
2017-11-22T04:25:16.019Z,95078.77
2017-11-22T04:27:43.334Z,95075.36
2017-11-22T04:30:25.129Z,95078.17
2017-11-22T04:32:52.523Z,95076.85
2017-11-22T04:40:46.892Z,95059.97
2017-11-22T04:43:21.796Z,95059.20
2017-11-22T04:45:49.009Z,95058.81
2017-11-22T04:48:29.240Z,95054.25
2017-11-22T04:50:56.478Z,95056.69
2017-11-22T04:53:23.671Z,95058.19
2017-11-22T04:56:13.055Z,95058.56
2017-11-22T05:04:07.460Z,95051.34
2017-11-22T05:06:34.719Z,95057.57
2017-11-22T05:09:01.948Z,95065.30
2017-11-22T05:14:20.967Z,95067.55
2017-11-22T05:16:48.855Z,95076.82
2017-11-22T05:19:16.142Z,95073.97
2017-11-22T05:21:44.399Z,95073.39
2017-11-22T05:24:12.147Z,95078.86
2017-11-22T05:26:39.341Z,95080.00
2017-11-22T05:31:42.071Z,95085.65
2017-11-22T05:34:09.398Z,95087.17
2017-11-22T05:36:36.659Z,95089.44
2017-11-22T05:39:03.897Z,95086.40
2017-11-22T05:41:31.171Z,95084.10
2017-11-22T05:44:08.919Z,95093.19
2017-11-22T05:52:12.905Z,95098.27
2017-11-22T05:54:41.149Z,95103.34
2017-11-22T05:59:40.089Z,95105.40
2017-11-22T06:05:11.579Z,95111.06
2017-11-22T06:10:11.288Z,95119.39
2017-11-22T06:12:38.979Z,95116.92
2017-11-22T06:15:12.205Z,95123.54
2017-11-22T06:20:23.368Z,95123.31
2017-11-22T06:22:51.596Z,95132.21
2017-11-22T06:25:31.479Z,95139.95
2017-11-22T07:28:38.357Z,95142.36
2017-11-22T07:47:20.598Z,95154.23
2017-11-22T08:13:35.398Z,95183.41
2017-11-22T13:33:18.600Z,94974.14
2017-11-22T14:09:42.770Z,94987.96
2017-11-22T14:12:10.171Z,94995.09
2017-11-22T14:14:37.672Z,94999.17
2017-11-22T14:17:05.003Z,94996.24
2017-11-22T14:19:33.252Z,94997.48
2017-11-22T14:57:41.112Z,95007.38
2017-11-22T16:20:09.526Z,95066.38
2017-11-22T16:22:39.572Z,95069.66
2017-11-22T16:35:23.424Z,95066.00
2017-11-22T16:37:50.650Z,95073.27
2017-11-22T16:40:17.876Z,95071.95
2017-11-22T16:42:45.773Z,95068.23
2017-11-22T16:45:13.107Z,95072.91
2017-11-22T16:47:40.705Z,95076.76
2017-11-22T17:28:51.005Z,95100.64
2017-11-22T17:31:18.178Z,95107.11
2017-11-22T17:33:45.446Z,95106.97
2017-11-22T17:36:16.939Z,95099.39
2017-11-22T17:38:44.571Z,95110.26
2017-11-22T23:42:05.426Z,95183.55
